Time;durP1;ratioP1;P1;durP2;ratioP2;P2;SDS_P1;SDS_P2;PMS_P1;PMS_P2;Temp;Humidity;BMP_temperature;BMP_pressure;BME280_temperature;BME280_humidity;BME280_pressure;Samples;Min_cycle;Max_cycle;Signal;HPM_P1;HPM_P2
2021/10/04 00:01:11;;;;;;;8.32;5.28;;;;;;;-144.51;100.00;69251.94;5083768;28;20040;-66
2021/10/04 00:03:56;;;;;;;8.80;5.55;;;;;;;-144.51;100.00;69251.94;5087285;28;20037;-66
2021/10/04 00:06:41;;;;;;;14.32;4.82;;;;;;;-144.51;100.00;69251.94;5077811;28;20476;-67
2021/10/04 00:09:26;;;;;;;7.45;5.50;;;;;;;-144.51;100.00;69251.94;5081076;28;20044;-66
2021/10/04 00:12:11;;;;;;;8.50;5.00;;;;;;;-144.51;100.00;69251.94;5078106;28;20036;-67
2021/10/04 00:14:57;;;;;;;10.32;5.85;;;;;;;-144.51;100.00;69251.94;5078152;28;20040;-66
2021/10/04 00:17:41;;;;;;;9.95;6.03;;;;;;;-144.51;100.00;69251.94;5082802;28;20045;-65
2021/10/04 00:20:27;;;;;;;13.63;5.78;;;;;;;-144.51;100.00;69251.94;5082537;28;20037;-65
2021/10/04 00:23:11;;;;;;;7.45;4.97;;;;;;;-144.51;100.00;69251.94;5094867;28;20032;-66
2021/10/04 00:25:56;;;;;;;;;;;;;;;-144.51;100.00;69251.94;5077878;28;20045;-67
2021/10/04 00:28:41;;;;;;;9.93;5.63;;;;;;;-144.51;100.00;69251.94;5095500;28;19916;-67
2021/10/04 00:31:26;;;;;;;8.68;6.38;;;;;;;-144.51;100.00;69251.94;5115693;28;20403;-67
2021/10/04 00:34:11;;;;;;;12.38;6.13;;;;;;;-144.51;100.00;69251.94;5101466;28;20387;-68
2021/10/04 00:36:56;;;;;;;;;;;;;;;-144.51;100.00;69251.94;5098268;28;20494;-65
2021/10/04 00:39:40;;;;;;;10.80;5.65;;;;;;;-144.51;100.00;69251.94;5096195;28;19915;-66
2021/10/04 00:42:26;;;;;;;8.68;5.30;;;;;;;-144.51;100.00;69251.94;5102044;28;20028;-65
2021/10/04 00:45:11;;;;;;;7.55;6.05;;;;;;;-144.51;100.00;69251.94;5101797;28;20052;-66
2021/10/04 00:47:56;;;;;;;9.57;5.38;;;;;;;-144.51;100.00;69251.94;5098895;28;20035;-66
2021/10/04 00:50:43;;;;;;;13.80;6.63;;;;;;;-144.51;100.00;69251.94;5100762;28;20040;-66
2021/10/04 00:53:28;;;;;;;12.13;7.10;;;;;;;-144.51;100.00;69251.94;5081549;28;20036;-65
2021/10/04 00:56:14;;;;;;;11.85;7.13;;;;;;;-144.51;100.00;69251.94;5081349;28;20044;-65
2021/10/04 00:58:59;;;;;;;13.60;6.32;;;;;;;-144.51;100.00;69251.94;5096293;28;20036;-66
2021/10/04 01:01:44;;;;;;;10.55;5.50;;;;;;;-144.51;100.00;69251.94;5101714;28;20040;-66
2021/10/04 01:04:29;;;;;;;;;;;;;;;-144.51;100.00;69251.94;5096380;28;20493;-67
2021/10/04 01:07:13;;;;;;;10.05;6.65;;;;;;;-144.51;100.00;69251.94;5098899;28;20375;-66
2021/10/04 01:09:58;;;;;;;;;;;;;;;-144.51;100.00;69251.94;5093895;28;20040;-66
2021/10/04 01:12:46;;;;;;;10.70;6.80;;;;;;;-144.51;100.00;69251.94;5101010;28;20375;-67
2021/10/04 01:15:31;;;;;;;19.33;7.25;;;;;;;-144.51;100.00;69251.94;5079607;28;20036;-68
2021/10/04 01:18:16;;;;;;;27.00;6.80;;;;;;;-144.51;100.00;69251.94;5079480;28;20032;-69
2021/10/04 01:21:01;;;;;;;;;;;;;;;-144.51;100.00;69251.94;5081718;28;20495;-68
2021/10/04 01:23:45;;;;;;;15.63;6.57;;;;;;;-144.51;100.00;69251.94;5083957;28;19912;-68
2021/10/04 01:26:31;;;;;;;12.02;7.05;;;;;;;-144.51;100.00;69251.94;5087258;28;20032;-68
2021/10/04 01:29:18;;;;;;;12.27;6.07;;;;;;;-144.51;100.00;69251.94;5096535;28;20406;-68
2021/10/04 01:32:03;;;;;;;13.80;6.88;;;;;;;-144.51;100.00;69251.94;5099988;28;20044;-66
2021/10/04 01:34:48;;;;;;;11.90;6.80;;;;;;;-144.51;100.00;69251.94;5093284;28;20040;-66
2021/10/04 01:37:34;;;;;;;10.23;6.70;;;;;;;-144.51;100.00;69251.94;5084334;28;20036;-65
2021/10/04 01:40:19;;;;;;;10.95;7.25;;;;;;;-144.51;100.00;69251.94;5095879;28;20036;-66
2021/10/04 01:43:06;;;;;;;11.13;6.57;;;;;;;-144.51;100.00;69251.94;5078389;28;20044;-65
2021/10/04 01:45:51;;;;;;;13.63;6.97;;;;;;;-144.51;100.00;69251.94;5081261;28;20032;-65
2021/10/04 01:48:36;;;;;;;17.05;7.05;;;;;;;-144.51;100.00;69251.94;5097987;28;20391;-68
2021/10/04 01:51:21;;;;;;;10.52;6.85;;;;;;;-144.51;100.00;69251.94;5097728;28;20035;-68
2021/10/04 01:54:06;;;;;;;11.32;7.40;;;;;;;-144.51;100.00;69251.94;5090399;28;20044;-72
2021/10/04 01:56:51;;;;;;;;;;;;;;;-144.51;100.00;69251.94;5097325;28;20044;-67
2021/10/04 01:59:36;;;;;;;11.77;6.40;;;;;;;-144.51;100.00;69251.94;5081665;28;19912;-70
2021/10/04 02:02:20;;;;;;;17.25;7.32;;;;;;;-144.51;100.00;69251.94;5100141;28;20032;-69
2021/10/04 02:05:06;;;;;;;13.60;7.75;;;;;;;-144.51;100.00;69251.94;5087396;28;20040;-68
2021/10/04 02:07:51;;;;;;;12.98;7.30;;;;;;;-144.51;100.00;69251.94;5098821;28;20044;-69
2021/10/04 02:10:39;;;;;;;17.15;7.72;;;;;;;-144.51;100.00;69251.94;5100238;28;20487;-68
2021/10/04 02:13:24;;;;;;;17.10;7.25;;;;;;;-144.51;100.00;69251.94;5096260;28;20036;-68
2021/10/04 02:16:08;;;;;;;;;;;;;;;-144.51;100.00;69251.94;5099941;28;20044;-68
2021/10/04 02:18:53;;;;;;;10.38;7.13;;;;;;;-144.51;100.00;69251.94;5089466;28;19912;-69
2021/10/04 02:21:37;;;;;;;;;;;;;;;-144.51;100.00;69251.94;5100747;28;20040;-68
2021/10/04 02:24:22;;;;;;;14.20;7.65;;;;;;;-144.51;100.00;69251.94;5079578;28;20364;-68
2021/10/04 02:27:06;;;;;;;20.25;7.93;;;;;;;-144.51;100.00;69251.94;5088539;28;20044;-70
2021/10/04 02:29:51;;;;;;;20.55;7.97;;;;;;;-144.51;100.00;69251.94;5091349;28;20036;-68
2021/10/04 02:32:36;;;;;;;11.07;7.28;;;;;;;-144.51;100.00;69251.94;5099881;28;20044;-68
2021/10/04 02:35:22;;;;;;;13.82;7.53;;;;;;;-144.51;100.00;69251.94;5093129;28;20036;-67
2021/10/04 02:38:07;;;;;;;13.90;7.88;;;;;;;-144.51;100.00;69251.94;5097954;28;20426;-68
2021/10/04 02:40:52;;;;;;;12.95;7.53;;;;;;;-144.51;100.00;69251.94;5099583;28;20491;-68
2021/10/04 02:43:37;;;;;;;9.77;7.07;;;;;;;-144.51;100.00;69251.94;5099717;28;20036;-68
2021/10/04 02:46:22;;;;;;;;;;;;;;;-144.51;100.00;69251.94;5098144;28;20051;-67
2021/10/04 02:49:06;;;;;;;11.23;5.97;;;;;;;-144.51;100.00;69251.94;5081235;28;20386;-68
2021/10/04 02:51:51;;;;;;;12.07;7.18;;;;;;;-144.51;100.00;69251.94;5099396;28;20048;-67
2021/10/04 02:54:36;;;;;;;10.32;6.78;;;;;;;-144.51;100.00;69251.94;5099335;28;20402;-68
2021/10/04 02:57:21;;;;;;;9.90;7.03;;;;;;;-144.51;100.00;69251.94;5084404;28;20035;-67
2021/10/04 03:00:10;;;;;;;12.55;7.03;;;;;;;-144.51;100.00;69251.94;5092426;28;20040;-69
2021/10/04 03:02:55;;;;;;;12.43;7.68;;;;;;;-144.51;100.00;69251.94;5099218;28;20040;-68
2021/10/04 03:05:40;;;;;;;18.77;7.15;;;;;;;-144.51;100.00;69251.94;5099501;28;20652;-68
2021/10/04 03:08:25;;;;;;;18.05;8.35;;;;;;;-144.51;100.00;69251.94;5096739;28;20491;-69
2021/10/04 03:11:10;;;;;;;11.95;7.45;;;;;;;-144.51;100.00;69251.94;5094230;28;20048;-68
2021/10/04 03:13:55;;;;;;;12.80;8.45;;;;;;;-144.51;100.00;69251.94;5092714;28;20040;-69
2021/10/04 03:16:40;;;;;;;17.55;6.78;;;;;;;-144.51;100.00;69251.94;5097383;28;20047;-70
2021/10/04 03:19:25;;;;;;;14.80;7.65;;;;;;;-144.51;100.00;69251.94;5093931;28;20441;-68
2021/10/04 03:22:10;;;;;;;14.20;7.85;;;;;;;-144.51;100.00;69251.94;5099690;28;20044;-69
2021/10/04 03:24:54;;;;;;;;;;;;;;;-144.51;100.00;69251.94;5099401;28;20044;-69
2021/10/04 03:27:39;;;;;;;13.07;8.05;;;;;;;-144.51;100.00;69251.94;5088842;28;19913;-69
2021/10/04 03:30:24;;;;;;;15.13;8.10;;;;;;;-144.51;100.00;69251.94;5089850;28;20048;-68
2021/10/04 03:33:09;;;;;;;;;;;;;;;-144.51;100.00;69251.94;5087723;28;20040;-67
2021/10/04 03:35:54;;;;;;;17.77;8.07;;;;;;;-144.51;100.00;69251.94;5105400;22;19920;-62
2021/10/04 03:38:39;;;;;;;12.70;7.40;;;;;;;-144.51;100.00;69251.94;5089295;28;20049;-62
2021/10/04 03:41:24;;;;;;;27.42;9.73;;;;;;;-144.51;100.00;69251.94;5095553;28;20032;-62
2021/10/04 03:44:09;;;;;;;18.90;8.70;;;;;;;-144.51;100.00;69251.94;5097468;28;20040;-62
2021/10/04 03:46:54;;;;;;;15.60;8.45;;;;;;;-144.51;100.00;69251.94;5096482;28;20039;-62
2021/10/04 03:49:39;;;;;;;17.42;7.78;;;;;;;-144.51;100.00;69251.94;5091619;28;20422;-62
2021/10/04 03:52:24;;;;;;;;;;;;;;;-144.51;100.00;69251.94;5096925;28;20036;-62
2021/10/04 03:55:10;;;;;;;15.45;8.13;;;;;;;-144.51;100.00;69251.94;5088560;28;19916;-61
2021/10/04 03:57:54;;;;;;;11.93;7.82;;;;;;;-144.51;100.00;69251.94;5091970;28;20044;-62
2021/10/04 04:00:39;;;;;;;18.10;8.63;;;;;;;-144.51;100.00;69251.94;5090001;28;20040;-62
2021/10/04 04:03:25;;;;;;;15.00;8.65;;;;;;;-144.51;100.00;69251.94;5095381;28;20036;-62
2021/10/04 04:06:10;;;;;;;15.48;7.78;;;;;;;-144.51;100.00;69251.94;5096360;28;20044;-62
2021/10/04 04:08:54;;;;;;;11.48;8.80;;;;;;;-144.51;100.00;69251.94;5093450;28;20040;-62
2021/10/04 04:11:39;;;;;;;16.23;7.95;;;;;;;-144.51;100.00;69251.94;5097399;28;20045;-63
2021/10/04 04:14:24;;;;;;;11.23;8.10;;;;;;;-144.51;100.00;69251.94;5102228;28;20036;-63
2021/10/04 04:17:09;;;;;;;13.68;7.68;;;;;;;-144.51;100.00;69251.94;5101878;28;20040;-65
2021/10/04 04:19:54;;;;;;;15.50;9.02;;;;;;;-144.51;100.00;69251.94;5096226;28;20048;-62
2021/10/04 04:22:40;;;;;;;15.00;8.20;;;;;;;-144.51;100.00;69251.94;5101197;28;20040;-61
2021/10/04 04:25:25;;;;;;;17.95;8.88;;;;;;;-144.51;100.00;69251.94;5102412;28;20036;-62
2021/10/04 04:28:10;;;;;;;14.73;7.38;;;;;;;-144.51;100.00;69251.94;5097606;28;20041;-62
2021/10/04 04:30:55;;;;;;;14.30;9.15;;;;;;;-144.51;100.00;69251.94;5090709;28;20040;-62
2021/10/04 04:33:40;;;;;;;13.20;7.85;;;;;;;-144.51;100.00;69251.94;5101031;28;20495;-62
2021/10/04 04:36:25;;;;;;;11.65;6.28;;;;;;;-144.51;100.00;69251.94;5098421;28;20040;-62
2021/10/04 04:39:10;;;;;;;15.45;8.25;;;;;;;-144.51;100.00;69251.94;5097678;28;20043;-62
2021/10/04 04:41:55;;;;;;;14.48;7.97;;;;;;;-144.51;100.00;69251.94;5095622;28;20040;-62
2021/10/04 04:44:40;;;;;;;18.40;8.82;;;;;;;-144.51;100.00;69251.94;5082499;28;20052;-62
2021/10/04 04:47:25;;;;;;;;;;;;;;;-144.51;100.00;69251.94;5092552;28;20032;-62
2021/10/04 04:50:09;;;;;;;20.17;8.52;;;;;;;-144.51;100.00;69251.94;5093680;28;19912;-62
2021/10/04 04:52:54;;;;;;;16.17;7.80;;;;;;;-144.51;100.00;69251.94;5093161;28;20044;-62
2021/10/04 04:55:39;;;;;;;19.45;7.70;;;;;;;-144.51;100.00;69251.94;5091905;28;20048;-62
2021/10/04 04:58:24;;;;;;;15.32;7.63;;;;;;;-144.51;100.00;69251.94;5088269;28;20036;-62
2021/10/04 05:01:09;;;;;;;15.25;7.70;;;;;;;-144.51;100.00;69251.94;5094642;28;20043;-62
2021/10/04 05:03:54;;;;;;;18.45;7.78;;;;;;;-144.51;100.00;69251.94;5092655;28;20044;-62
2021/10/04 05:06:39;;;;;;;;;;;;;;;-144.51;100.00;69251.94;5082391;28;20492;-62
2021/10/04 05:09:24;;;;;;;16.50;6.35;;;;;;;-144.51;100.00;69251.94;5091949;28;19916;-62
2021/10/04 05:12:09;;;;;;;15.95;7.88;;;;;;;-144.51;100.00;69251.94;5094682;28;20036;-62
2021/10/04 05:14:54;;;;;;;17.42;8.35;;;;;;;-144.51;100.00;69251.94;5101055;28;20423;-62
2021/10/04 05:17:39;;;;;;;;;;;;;;;-144.51;100.00;69251.94;5095590;28;20039;-62
2021/10/04 05:20:24;;;;;;;15.30;7.32;;;;;;;-144.51;100.00;69251.94;5090419;28;20067;-64
2021/10/04 05:23:08;;;;;;;22.48;7.97;;;;;;;-144.51;100.00;69251.94;5089489;28;20506;-62
2021/10/04 05:25:53;;;;;;;26.08;7.25;;;;;;;-144.51;100.00;69251.94;5100180;28;20044;-61
2021/10/04 05:28:38;;;;;;;16.90;7.18;;;;;;;-144.51;100.00;69251.94;5083149;28;20035;-60
2021/10/04 05:31:23;;;;;;;20.50;7.07;;;;;;;-144.51;100.00;69251.94;5097135;28;20032;-61
2021/10/04 05:34:08;;;;;;;28.17;8.68;;;;;;;-144.51;100.00;69251.94;5094328;28;20036;-61
2021/10/04 05:36:53;;;;;;;21.77;8.32;;;;;;;-144.51;100.00;69251.94;5088468;28;20044;-61
2021/10/04 05:39:38;;;;;;;20.40;7.00;;;;;;;-144.51;100.00;69251.94;5094365;28;20044;-60
2021/10/04 05:42:23;;;;;;;25.50;7.68;;;;;;;-144.51;100.00;69251.94;5100912;28;20040;-60
2021/10/04 05:45:11;;;;;;;19.80;7.55;;;;;;;-144.51;100.00;69251.94;5098570;28;20414;-61
2021/10/04 05:47:56;;;;;;;21.17;7.78;;;;;;;-144.51;100.00;69251.94;5100176;28;20044;-61
2021/10/04 05:50:41;;;;;;;16.70;7.30;;;;;;;-144.51;100.00;69251.94;5101047;28;20062;-61
2021/10/04 05:53:26;;;;;;;32.13;8.25;;;;;;;-144.51;100.00;69251.94;5101039;28;20024;-61
2021/10/04 05:56:11;;;;;;;22.15;7.85;;;;;;;-144.51;100.00;69251.94;5100982;28;20052;-61
2021/10/04 05:58:56;;;;;;;20.60;7.85;;;;;;;-144.51;100.00;69251.94;5094683;28;20506;-61
2021/10/04 06:01:41;;;;;;;19.55;8.95;;;;;;;-144.51;100.00;69251.94;5080850;28;20040;-61
2021/10/04 06:04:26;;;;;;;24.60;8.43;;;;;;;-144.51;100.00;69251.94;5092691;28;20241;-61
2021/10/04 06:07:10;;;;;;;;;;;;;;;-144.51;100.00;69251.94;5084713;28;20411;-61
2021/10/04 06:09:55;;;;;;;18.10;7.40;;;;;;;-144.51;100.00;69251.94;5084574;28;20285;-60
2021/10/04 06:12:41;;;;;;;34.97;10.45;;;;;;;-144.51;100.00;69251.94;5080589;28;20040;-60
2021/10/04 06:15:25;;;;;;;19.55;7.68;;;;;;;-144.51;100.00;69251.94;5084338;28;20040;-60
2021/10/04 06:18:12;;;;;;;22.65;8.23;;;;;;;-144.51;100.00;69251.94;5098832;28;20043;-60
2021/10/04 06:20:56;;;;;;;16.45;8.10;;;;;;;-144.51;100.00;69251.94;5087595;28;20044;-60
2021/10/04 06:23:41;;;;;;;23.50;9.73;;;;;;;-144.51;100.00;69251.94;5093165;28;20407;-60
2021/10/04 06:26:26;;;;;;;21.88;7.90;;;;;;;-144.51;100.00;69251.94;5078453;28;20404;-60
2021/10/04 06:29:12;;;;;;;21.60;8.30;;;;;;;-144.51;100.00;69251.94;5075296;28;20423;-60
2021/10/04 06:31:57;;;;;;;10.65;5.72;;;;;;;-144.51;100.00;69251.94;5080132;28;20041;-60
2021/10/04 06:34:42;;;;;;;14.90;6.05;;;;;;;-144.51;100.00;69251.94;5079701;28;20036;-61
2021/10/04 06:37:27;;;;;;;19.70;7.90;;;;;;;-144.51;100.00;69251.94;5072993;28;20431;-62
2021/10/04 06:40:13;;;;;;;11.30;7.07;;;;;;;-144.51;100.00;69251.94;5079786;28;20044;-60
2021/10/04 06:42:58;;;;;;;13.23;5.93;;;;;;;-144.51;100.00;69251.94;5079977;28;20048;-60
2021/10/04 06:45:43;;;;;;;15.98;7.22;;;;;;;-144.51;100.00;69251.94;5076815;28;20048;-62
2021/10/04 06:48:28;;;;;;;12.77;5.80;;;;;;;-144.51;100.00;69251.94;5077480;28;20040;-60
2021/10/04 06:51:13;;;;;;;12.75;5.75;;;;;;;-144.51;100.00;69251.94;5079446;28;20040;-62
2021/10/04 06:53:58;;;;;;;16.42;5.90;;;;;;;-144.51;100.00;69251.94;5080931;28;20036;-62
2021/10/04 06:56:43;;;;;;;11.80;6.72;;;;;;;-144.51;100.00;69251.94;5099664;28;20048;-63
2021/10/04 06:59:28;;;;;;;12.25;5.63;;;;;;;-144.51;100.00;69251.94;5074078;28;20040;-62
2021/10/04 07:02:13;;;;;;;13.82;5.28;;;;;;;-144.51;100.00;69251.94;5086108;28;20043;-60
2021/10/04 07:04:59;;;;;;;11.80;6.10;;;;;;;-144.51;100.00;69251.94;5099497;28;20040;-62
2021/10/04 07:07:45;;;;;;;13.63;5.40;;;;;;;-144.51;100.00;69251.94;5098896;28;20052;-61
2021/10/04 07:10:30;;;;;;;16.52;5.13;;;;;;;-144.51;100.00;69251.94;5099277;28;20036;-62
2021/10/04 07:13:15;;;;;;;10.80;5.53;;;;;;;-144.51;100.00;69251.94;5095182;28;20044;-62
2021/10/04 07:16:00;;;;;;;11.93;5.80;;;;;;;-144.51;100.00;69251.94;5099165;28;20044;-62
2021/10/04 07:18:45;;;;;;;;;;;;;;;-144.51;100.00;69251.94;5096649;28;20044;-62
2021/10/04 07:21:30;;;;;;;10.40;5.00;;;;;;;-144.51;100.00;69251.94;5098997;28;19912;-62
2021/10/04 07:24:15;;;;;;;13.63;5.07;;;;;;;-144.51;100.00;69251.94;5099144;28;20036;-62
2021/10/04 07:27:00;;;;;;;17.27;6.88;;;;;;;-144.51;100.00;69251.94;5099121;28;20043;-62
2021/10/04 07:29:45;;;;;;;8.77;5.32;;;;;;;-144.51;100.00;69251.94;5092951;28;20074;-62
2021/10/04 07:32:30;;;;;;;16.30;5.63;;;;;;;-144.51;100.00;69251.94;5099008;28;20035;-62
2021/10/04 07:35:15;;;;;;;13.18;4.60;;;;;;;-144.51;100.00;69251.94;5097296;28;20032;-62
2021/10/04 07:38:00;;;;;;;13.38;4.90;;;;;;;-144.51;100.00;69251.94;5097802;28;20040;-62
2021/10/04 07:40:46;;;;;;;11.20;4.90;;;;;;;-144.51;100.00;69251.94;5098756;28;20048;-62
2021/10/04 07:43:31;;;;;;;10.50;4.72;;;;;;;-144.51;100.00;69251.94;5098735;28;20040;-62
2021/10/04 07:46:16;;;;;;;10.95;4.68;;;;;;;-144.51;100.00;69251.94;5098840;28;20478;-62
2021/10/04 07:49:01;;;;;;;8.93;5.68;;;;;;;-144.51;100.00;69251.94;5094876;28;20502;-62
2021/10/04 07:51:46;;;;;;;9.23;4.63;;;;;;;-144.51;100.00;69251.94;5098729;28;20040;-62
2021/10/04 07:54:31;;;;;;;8.88;4.82;;;;;;;-144.51;100.00;69251.94;5098681;28;20044;-62
2021/10/04 07:57:16;;;;;;;15.52;6.18;;;;;;;-144.51;100.00;69251.94;5094121;28;20044;-62
2021/10/04 08:00:01;;;;;;;8.07;4.90;;;;;;;-144.51;100.00;69251.94;5092022;28;20036;-62
2021/10/04 08:02:46;;;;;;;7.95;4.55;;;;;;;-144.51;100.00;69251.94;5096239;28;20040;-62
2021/10/04 08:05:31;;;;;;;7.63;4.60;;;;;;;-144.51;100.00;69251.94;5098458;28;20035;-62
2021/10/04 08:08:16;;;;;;;12.15;5.72;;;;;;;-144.51;100.00;69251.94;5096779;28;20040;-62
2021/10/04 08:11:01;;;;;;;10.00;5.28;;;;;;;-144.51;100.00;69251.94;5098585;28;20040;-62
2021/10/04 08:13:46;;;;;;;9.98;4.78;;;;;;;-144.51;100.00;69251.94;5098775;28;20044;-62
2021/10/04 08:16:30;;;;;;;9.02;4.75;;;;;;;-144.51;100.00;69251.94;5098084;28;20043;-62
2021/10/04 08:19:16;;;;;;;10.68;5.78;;;;;;;-144.51;100.00;69251.94;5094215;28;20039;-62
2021/10/04 08:22:01;;;;;;;9.32;5.35;;;;;;;-144.51;100.00;69251.94;5094613;28;20487;-61
2021/10/04 08:24:46;;;;;;;9.05;5.40;;;;;;;-144.51;100.00;69251.94;5098609;28;20475;-62
2021/10/04 08:27:31;;;;;;;10.85;5.45;;;;;;;-144.51;100.00;69251.94;5098642;28;20040;-62
2021/10/04 08:30:16;;;;;;;13.60;5.35;;;;;;;-144.51;100.00;69251.94;5098533;28;20063;-62
2021/10/04 08:33:01;;;;;;;11.43;4.82;;;;;;;-144.51;100.00;69251.94;5098638;28;20036;-60
2021/10/04 08:35:46;;;;;;;13.10;5.65;;;;;;;-144.51;100.00;69251.94;5096255;28;20427;-62
2021/10/04 08:38:32;;;;;;;11.38;4.65;;;;;;;-144.51;100.00;69251.94;5095949;28;20040;-62
2021/10/04 08:41:19;;;;;;;9.68;4.63;;;;;;;-144.51;100.00;69251.94;5098245;28;20527;-62
2021/10/04 08:44:14;;;;;;;7.13;4.88;;;;;;;-144.51;100.00;69251.94;5098408;28;20036;-62
2021/10/04 08:46:59;;;;;;;11.52;5.38;;;;;;;-144.51;100.00;69251.94;5098457;28;20055;-62
2021/10/04 08:49:44;;;;;;;8.65;5.32;;;;;;;-144.51;100.00;69251.94;5092189;28;20044;-62
2021/10/04 08:52:29;;;;;;;10.63;5.65;;;;;;;-144.51;100.00;69251.94;5096421;28;20052;-62
2021/10/04 08:55:14;;;;;;;9.63;4.90;;;;;;;-144.51;100.00;69251.94;5098135;28;20212;-62
2021/10/04 08:57:59;;;;;;;8.85;5.10;;;;;;;-144.51;100.00;69251.94;5096222;28;20048;-62
2021/10/04 09:00:44;;;;;;;8.40;5.18;;;;;;;-144.51;100.00;69251.94;5101729;28;20040;-62
2021/10/04 09:03:46;;;;;;;10.13;5.65;;;;;;;-144.51;100.00;69251.94;5101729;28;20040;-62
2021/10/04 09:06:40;;;;;;;8.20;4.47;;;;;;;-144.51;100.00;69251.94;5101503;28;20044;-62
2021/10/04 09:09:24;;;;;;;6.22;3.72;;;;;;;-144.51;100.00;69251.94;5096621;28;20040;-62
2021/10/04 09:12:10;;;;;;;11.25;5.10;;;;;;;-144.51;100.00;69251.94;5101620;28;20106;-62
2021/10/04 09:14:55;;;;;;;8.70;4.28;;;;;;;-144.51;100.00;69251.94;5101413;28;20048;-62
2021/10/04 09:17:40;;;;;;;12.93;4.78;;;;;;;-144.51;100.00;69251.94;5101086;28;20048;-63
2021/10/04 09:20:44;;;;;;;10.70;4.53;;;;;;;-144.51;100.00;69251.94;5097439;28;20056;-62
2021/10/04 09:23:44;;;;;;;7.28;3.33;;;;;;;-144.51;100.00;69251.94;5101395;28;20036;-62
2021/10/04 09:26:29;;;;;;;6.85;3.33;;;;;;;-144.51;100.00;69251.94;5101502;28;20052;-62
2021/10/04 09:29:14;;;;;;;6.53;3.45;;;;;;;-144.51;100.00;69251.94;5096714;28;20036;-62
2021/10/04 09:32:00;;;;;;;10.25;3.60;;;;;;;-144.51;100.00;69251.94;5101123;28;20048;-62
2021/10/04 09:34:44;;;;;;;9.07;3.95;;;;;;;-144.51;100.00;69251.94;5096080;28;20221;-62
2021/10/04 09:37:29;;;;;;;7.40;3.25;;;;;;;-144.51;100.00;69251.94;5122785;22;20036;-71
2021/10/04 09:40:31;;;;;;;6.03;3.30;;;;;;;-144.51;100.00;69251.94;5099804;28;20036;-71
2021/10/04 09:43:27;;;;;;;6.93;3.00;;;;;;;-144.51;100.00;69251.94;5097101;28;20040;-71
2021/10/04 09:46:12;;;;;;;6.05;3.05;;;;;;;-144.51;100.00;69251.94;5093452;28;20036;-71
2021/10/04 09:49:01;;;;;;;6.93;3.13;;;;;;;-144.51;100.00;69251.94;5092504;28;20036;-71
2021/10/04 09:51:54;;;;;;;7.57;2.72;;;;;;;-144.51;100.00;69251.94;5091599;28;20115;-71
2021/10/04 09:54:47;;;;;;;5.30;3.13;;;;;;;-144.51;100.00;69251.94;5091027;28;20032;-70
2021/10/04 09:57:32;;;;;;;7.53;3.15;;;;;;;-144.51;100.00;69251.94;5094072;28;20032;-70
2021/10/04 10:00:16;;;;;;;8.60;3.08;;;;;;;-144.51;100.00;69251.94;5093600;28;20490;-71
2021/10/04 10:03:03;;;;;;;6.40;4.00;;;;;;;-144.51;100.00;69251.94;5092123;28;20032;-71
2021/10/04 10:05:53;;;;;;;4.97;3.00;;;;;;;-144.51;100.00;69251.94;5096395;28;20040;-69
2021/10/04 10:08:38;;;;;;;5.72;2.97;;;;;;;-144.51;100.00;69251.94;5095579;28;20032;-69
2021/10/04 10:11:23;;;;;;;9.68;4.47;;;;;;;-144.51;100.00;69251.94;5090192;28;20410;-71
2021/10/04 10:14:08;;;;;;;8.52;3.50;;;;;;;-144.51;100.00;69251.94;5091897;28;20032;-70
2021/10/04 10:16:54;;;;;;;11.20;3.35;;;;;;;-144.51;100.00;69251.94;5092917;28;20044;-71
2021/10/04 10:19:40;;;;;;;5.57;2.80;;;;;;;-144.51;100.00;69251.94;5092492;28;20036;-71
2021/10/04 10:22:29;;;;;;;8.05;3.63;;;;;;;-144.51;100.00;69251.94;5092795;28;20102;-70
2021/10/04 10:25:38;;;;;;;6.53;3.00;;;;;;;-144.51;100.00;69251.94;5095799;28;20036;-70
2021/10/04 10:28:33;;;;;;;5.32;2.95;;;;;;;-144.51;100.00;69251.94;5097743;28;20040;-70
2021/10/04 10:31:18;;;;;;;8.65;3.38;;;;;;;-144.51;100.00;69251.94;5095988;28;20032;-70
2021/10/04 10:34:03;;;;;;;5.65;3.13;;;;;;;-144.51;100.00;69251.94;5094054;28;20036;-71
2021/10/04 10:37:08;;;;;;;5.85;3.10;;;;;;;-144.51;100.00;69251.94;5095636;28;20036;-71
2021/10/04 10:40:09;;;;;;;9.07;3.45;;;;;;;-144.51;100.00;69251.94;5093320;28;20483;-70
2021/10/04 10:43:09;;;;;;;8.18;3.53;;;;;;;-144.51;100.00;69251.94;5098133;28;20032;-70
2021/10/04 10:45:54;;;;;;;10.73;4.45;;;;;;;-144.51;100.00;69251.94;5095453;28;20032;-70
2021/10/04 10:48:40;;;;;;;11.38;3.78;;;;;;;-144.51;100.00;69251.94;5093491;28;20428;-70
2021/10/04 10:51:25;;;;;;;9.25;3.88;;;;;;;-144.51;100.00;69251.94;5097061;28;20402;-71
2021/10/04 10:54:36;;;;;;;8.57;4.35;;;;;;;-144.51;100.00;69251.94;5094593;28;20399;-71
2021/10/04 10:57:24;;;;;;;30.30;4.10;;;;;;;-144.51;100.00;69251.94;5098235;28;20066;-71
2021/10/04 11:00:22;;;;;;;10.50;3.70;;;;;;;-144.51;100.00;69251.94;5096202;28;20035;-71
2021/10/04 11:03:14;;;;;;;7.32;4.20;;;;;;;-144.51;100.00;69251.94;5093253;28;20036;-71
2021/10/04 11:06:05;;;;;;;6.82;3.78;;;;;;;-144.51;100.00;69251.94;5097406;28;20028;-70
2021/10/04 11:08:54;;;;;;;12.27;4.15;;;;;;;-144.51;100.00;69251.94;5092054;28;20040;-70
2021/10/04 11:11:41;;;;;;;12.68;4.43;;;;;;;-144.51;100.00;69251.94;5090837;28;20028;-71
2021/10/04 11:14:25;;;;;;;11.80;4.05;;;;;;;-144.51;100.00;69251.94;5095350;28;20048;-71
2021/10/04 11:17:10;;;;;;;11.63;3.95;;;;;;;-144.51;100.00;69251.94;5094290;28;20032;-71
2021/10/04 11:19:56;;;;;;;5.85;3.88;;;;;;;-144.51;100.00;69251.94;5091969;28;20040;-71
2021/10/04 11:22:40;;;;;;;8.88;3.50;;;;;;;-144.51;100.00;69251.94;5096304;28;20044;-71
2021/10/04 11:25:25;;;;;;;8.65;3.90;;;;;;;-144.51;100.00;69251.94;5094429;28;20467;-71
2021/10/04 11:28:12;;;;;;;11.75;3.92;;;;;;;-144.51;100.00;69251.94;5092433;28;20039;-70
2021/10/04 11:30:58;;;;;;;15.82;4.13;;;;;;;-144.51;100.00;69251.94;5097642;28;20406;-71
2021/10/04 11:33:51;;;;;;;8.93;3.67;;;;;;;-144.51;100.00;69251.94;5092537;28;20063;-70
2021/10/04 11:36:37;;;;;;;7.53;3.80;;;;;;;-144.51;100.00;69251.94;5092047;28;20036;-71
2021/10/04 11:39:24;;;;;;;10.00;3.90;;;;;;;-144.51;100.00;69251.94;5093114;28;20044;-71
2021/10/04 11:42:09;;;;;;;6.70;5.30;;;;;;;-144.51;100.00;69251.94;5093584;28;20498;-71
2021/10/04 11:44:54;;;;;;;8.68;4.22;;;;;;;-144.51;100.00;69251.94;5092278;28;20040;-71
2021/10/04 11:47:41;;;;;;;8.15;3.90;;;;;;;-144.51;100.00;69251.94;5096024;28;20035;-71
2021/10/04 11:50:27;;;;;;;8.20;4.10;;;;;;;-144.51;100.00;69251.94;5093800;28;20052;-71
2021/10/04 11:53:14;;;;;;;9.02;3.80;;;;;;;-144.51;100.00;69251.94;5092309;28;20032;-71
2021/10/04 11:56:01;;;;;;;7.93;3.58;;;;;;;-144.51;100.00;69251.94;5097397;28;20032;-71
2021/10/04 11:58:57;;;;;;;6.65;4.13;;;;;;;-144.51;100.00;69251.94;5094438;28;20047;-71
2021/10/04 12:01:42;;;;;;;8.95;3.90;;;;;;;-144.51;100.00;69251.94;5092077;28;20048;-71
2021/10/04 12:04:27;;;;;;;9.15;3.75;;;;;;;-144.51;100.00;69251.94;5095120;28;20036;-71
2021/10/04 12:07:12;;;;;;;11.23;4.45;;;;;;;-144.51;100.00;69251.94;5093848;28;20495;-71
2021/10/04 12:09:57;;;;;;;9.50;3.47;;;;;;;-144.51;100.00;69251.94;5090038;28;20032;-71
2021/10/04 12:12:42;;;;;;;7.03;3.83;;;;;;;-144.51;100.00;69251.94;5096298;28;20044;-71
2021/10/04 12:15:27;;;;;;;5.90;3.40;;;;;;;-144.51;100.00;69251.94;5092209;28;20406;-71
2021/10/04 12:18:17;;;;;;;7.88;3.95;;;;;;;-144.51;100.00;69251.94;5091985;28;20565;-71
2021/10/04 12:21:22;;;;;;;10.77;3.92;;;;;;;-144.51;100.00;69251.94;5090590;28;20032;-71
2021/10/04 12:24:24;;;;;;;7.75;4.82;;;;;;;-144.51;100.00;69251.94;5093020;28;20488;-71
2021/10/04 12:27:13;;;;;;;9.85;3.97;;;;;;;-144.51;100.00;69251.94;5096030;28;20036;-70
2021/10/04 12:30:00;;;;;;;10.23;4.20;;;;;;;-144.51;100.00;69251.94;5095495;28;20399;-70
2021/10/04 12:32:46;;;;;;;9.18;3.70;;;;;;;-144.51;100.00;69251.94;5092030;28;20049;-70
2021/10/04 12:35:31;;;;;;;9.18;4.15;;;;;;;-144.51;100.00;69251.94;5099528;28;20043;-70